VAR340 VNLK-VNLK
Flight info
| Callsign | VAR340 |
|---|---|
| Flight time | 0h 49m |
| Altitude | 230 |
| Route | CAMPO BASE EVEREST |
| Aircraft | DHC6/L-SDFGIRY/S |
Departure
| Time | 2025-12-09 20:22 |
|---|---|
| Airport | Tenzing-Hillary Airport (VNLK) |
Arrival
| Time | 2025-12-09 21:12 |
|---|---|
| Airport | Tenzing-Hillary Airport (VNLK) |
| Time | Latitude | Longitude | Altitude | Speed | Heading |
|---|---|---|---|---|---|
| 2025-12-09 19:48 | 27.68767 | 86.73187 | 9406 ft | 0 kts | 242° |
| 2025-12-09 20:17 | 27.68785 | 86.73174 | 9405 ft | 3 kts | 60° |
| 2025-12-09 20:18 | 27.68792 | 86.73171 | 9405 ft | 5 kts | 254° |
| 2025-12-09 20:19 | 27.68789 | 86.73165 | 9405 ft | 0 kts | 243° |
| 2025-12-09 20:20 | 27.68731 | 86.73046 | 9361 ft | 55 kts | 239° |
| 2025-12-09 20:20 | 27.68400 | 86.72415 | 9340 ft | 104 kts | 245° |
| 2025-12-09 20:21 | 27.68860 | 86.71087 | 10010 ft | 107 kts | 338° |
| 2025-12-09 20:21 | 27.70381 | 86.70956 | 10609 ft | 118 kts | 0° |
| 2025-12-09 20:22 | 27.72156 | 86.70966 | 10993 ft | 140 kts | 358° |
| 2025-12-09 20:23 | 27.75181 | 86.71303 | 11717 ft | 140 kts | 22° |
| 2025-12-09 20:23 | 27.77001 | 86.71896 | 12391 ft | 136 kts | 12° |
| 2025-12-09 20:24 | 27.78843 | 86.72366 | 13028 ft | 136 kts | 12° |
| 2025-12-09 20:24 | 27.79763 | 86.72607 | 13336 ft | 135 kts | 12° |
| 2025-12-09 20:24 | 27.81263 | 86.71852 | 14000 ft | 130 kts | 287° |
| 2025-12-09 20:25 | 27.81582 | 86.69874 | 14631 ft | 128 kts | 279° |
| 2025-12-09 20:25 | 27.82141 | 86.68007 | 15344 ft | 126 kts | 304° |
| 2025-12-09 20:26 | 27.83337 | 86.66548 | 16012 ft | 129 kts | 320° |
| 2025-12-09 20:27 | 27.85604 | 86.64949 | 16906 ft | 130 kts | 332° |
| 2025-12-09 20:27 | 27.86426 | 86.64512 | 17154 ft | 131 kts | 335° |
| 2025-12-09 20:27 | 27.88128 | 86.63747 | 17623 ft | 133 kts | 339° |
| 2025-12-09 20:28 | 27.89871 | 86.63020 | 18063 ft | 133 kts | 339° |
| 2025-12-09 20:28 | 27.91561 | 86.62183 | 18518 ft | 132 kts | 333° |
| 2025-12-09 20:29 | 27.93092 | 86.61094 | 18961 ft | 129 kts | 318° |
| 2025-12-09 20:29 | 27.94388 | 86.59718 | 19399 ft | 127 kts | 313° |
| 2025-12-09 20:30 | 27.95173 | 86.58000 | 19884 ft | 122 kts | 293° |
| 2025-12-09 20:30 | 27.95513 | 86.57120 | 20111 ft | 122 kts | 294° |
| 2025-12-09 20:31 | 27.97516 | 86.55534 | 20786 ft | 120 kts | 338° |
| 2025-12-09 20:31 | 27.99118 | 86.54909 | 21133 ft | 123 kts | 341° |
| 2025-12-09 20:32 | 28.00730 | 86.54246 | 21479 ft | 123 kts | 337° |
| 2025-12-09 20:32 | 28.02302 | 86.53515 | 21841 ft | 123 kts | 335° |
| 2025-12-09 20:33 | 28.03947 | 86.52719 | 21988 ft | 137 kts | 336° |
| 2025-12-09 20:33 | 28.05820 | 86.52006 | 22011 ft | 148 kts | 2° |
| 2025-12-09 20:34 | 28.07888 | 86.52485 | 21993 ft | 154 kts | 14° |
| 2025-12-09 20:34 | 28.08931 | 86.52800 | 21997 ft | 156 kts | 14° |
| 2025-12-09 20:35 | 28.13171 | 86.54161 | 21994 ft | 159 kts | 15° |
| 2025-12-09 20:35 | 28.14231 | 86.54505 | 21994 ft | 159 kts | 15° |
| 2025-12-09 20:36 | 28.16324 | 86.55203 | 22075 ft | 152 kts | 22° |
| 2025-12-09 20:36 | 28.17557 | 86.56965 | 22209 ft | 145 kts | 79° |
| 2025-12-09 20:37 | 28.17773 | 86.59232 | 22371 ft | 144 kts | 86° |
| 2025-12-09 20:37 | 28.17891 | 86.61511 | 22548 ft | 145 kts | 87° |
| 2025-12-09 20:38 | 28.17960 | 86.63786 | 22670 ft | 143 kts | 93° |
| 2025-12-09 20:38 | 28.17884 | 86.64902 | 22743 ft | 142 kts | 95° |
| 2025-12-09 20:39 | 28.17537 | 86.68239 | 22992 ft | 142 kts | 96° |
| 2025-12-09 20:39 | 28.17296 | 86.70447 | 23133 ft | 140 kts | 97° |
| 2025-12-09 20:40 | 28.17055 | 86.72623 | 23275 ft | 139 kts | 97° |
| 2025-12-09 20:40 | 28.16821 | 86.74772 | 23427 ft | 136 kts | 97° |
| 2025-12-09 20:41 | 28.16574 | 86.76967 | 23501 ft | 145 kts | 97° |
| 2025-12-09 20:41 | 28.16307 | 86.79275 | 23491 ft | 148 kts | 97° |
| 2025-12-09 20:42 | 28.16171 | 86.80436 | 23493 ft | 148 kts | 102° |
| 2025-12-09 20:42 | 28.14890 | 86.82188 | 23497 ft | 149 kts | 143° |
| 2025-12-09 20:43 | 28.12346 | 86.84247 | 23508 ft | 152 kts | 146° |
| 2025-12-09 20:43 | 28.10733 | 86.85772 | 23496 ft | 151 kts | 133° |
| 2025-12-09 20:44 | 28.09391 | 86.87618 | 23506 ft | 152 kts | 128° |
| 2025-12-09 20:44 | 28.08092 | 86.89552 | 23499 ft | 155 kts | 127° |
| 2025-12-09 20:45 | 28.06796 | 86.91494 | 23531 ft | 154 kts | 127° |
| 2025-12-09 20:45 | 28.05506 | 86.93440 | 23520 ft | 155 kts | 127° |
| 2025-12-09 20:46 | 28.04857 | 86.94417 | 23504 ft | 155 kts | 130° |
| 2025-12-09 20:46 | 28.03261 | 86.96022 | 23526 ft | 153 kts | 143° |
| 2025-12-09 20:47 | 28.00714 | 86.98188 | 23499 ft | 152 kts | 144° |
| 2025-12-09 20:47 | 27.99006 | 86.99612 | 23508 ft | 153 kts | 145° |
| 2025-12-09 20:48 | 27.97081 | 87.00609 | 23515 ft | 154 kts | 161° |
| 2025-12-09 20:48 | 27.95025 | 87.01246 | 23503 ft | 152 kts | 173° |
| 2025-12-09 20:49 | 27.93124 | 87.00554 | 23503 ft | 148 kts | 229° |
| 2025-12-09 20:49 | 27.92637 | 86.99542 | 23499 ft | 147 kts | 251° |
| 2025-12-09 20:50 | 27.92083 | 86.97335 | 23506 ft | 148 kts | 256° |
| 2025-12-09 20:50 | 27.91597 | 86.95015 | 23273 ft | 155 kts | 257° |
| 2025-12-09 20:51 | 27.90027 | 86.91980 | 22831 ft | 161 kts | 204° |
| 2025-12-09 20:51 | 27.87817 | 86.91794 | 22533 ft | 161 kts | 169° |
| 2025-12-09 20:52 | 27.85974 | 86.92272 | 22278 ft | 165 kts | 166° |
| 2025-12-09 20:52 | 27.83747 | 86.92938 | 21965 ft | 166 kts | 165° |
| 2025-12-09 20:53 | 27.81523 | 86.93600 | 21662 ft | 165 kts | 168° |
| 2025-12-09 20:53 | 27.80393 | 86.93826 | 21514 ft | 165 kts | 173° |
| 2025-12-09 20:54 | 27.78097 | 86.94057 | 21218 ft | 166 kts | 176° |
| 2025-12-09 20:54 | 27.75771 | 86.94229 | 20934 ft | 169 kts | 177° |
| 2025-12-09 20:55 | 27.72230 | 86.94471 | 20449 ft | 171 kts | 177° |
| 2025-12-09 20:55 | 27.69860 | 86.94395 | 20078 ft | 168 kts | 184° |
| 2025-12-09 20:56 | 27.67549 | 86.94209 | 19565 ft | 165 kts | 185° |
| 2025-12-09 20:56 | 27.65290 | 86.94010 | 19016 ft | 163 kts | 185° |
| 2025-12-09 20:57 | 27.63011 | 86.93806 | 18374 ft | 165 kts | 186° |
| 2025-12-09 20:57 | 27.60909 | 86.92943 | 17715 ft | 163 kts | 207° |
| 2025-12-09 20:58 | 27.59900 | 86.92358 | 17402 ft | 163 kts | 208° |
| 2025-12-09 20:58 | 27.57892 | 86.91146 | 16759 ft | 164 kts | 209° |
| 2025-12-09 20:59 | 27.54904 | 86.89315 | 15762 ft | 162 kts | 209° |
| 2025-12-09 20:59 | 27.52942 | 86.88103 | 15114 ft | 159 kts | 212° |
| 2025-12-09 21:00 | 27.51526 | 86.86239 | 14444 ft | 158 kts | 239° |
| 2025-12-09 21:00 | 27.50501 | 86.84127 | 13687 ft | 150 kts | 243° |
| 2025-12-09 21:01 | 27.49554 | 86.82066 | 12935 ft | 146 kts | 243° |
| 2025-12-09 21:01 | 27.48648 | 86.80077 | 12303 ft | 139 kts | 243° |
| 2025-12-09 21:02 | 27.48212 | 86.79117 | 12004 ft | 137 kts | 243° |
| 2025-12-09 21:02 | 27.47361 | 86.77231 | 11400 ft | 132 kts | 247° |
| 2025-12-09 21:03 | 27.47926 | 86.74532 | 10959 ft | 103 kts | 299° |
| 2025-12-09 21:03 | 27.48701 | 86.73053 | 10914 ft | 122 kts | 301° |
| 2025-12-09 21:04 | 27.50023 | 86.71823 | 10914 ft | 129 kts | 333° |
| 2025-12-09 21:04 | 27.51695 | 86.71015 | 10918 ft | 130 kts | 338° |
| 2025-12-09 21:05 | 27.53310 | 86.70302 | 10896 ft | 117 kts | 338° |
| 2025-12-09 21:05 | 27.54050 | 86.69980 | 10906 ft | 114 kts | 338° |
| 2025-12-09 21:06 | 27.56223 | 86.69140 | 10892 ft | 105 kts | 352° |
| 2025-12-09 21:06 | 27.56965 | 86.69076 | 10963 ft | 104 kts | 356° |
| 2025-12-09 21:07 | 27.59111 | 86.69245 | 11049 ft | 95 kts | 5° |
| 2025-12-09 21:07 | 27.60456 | 86.69432 | 10444 ft | 97 kts | 5° |
| 2025-12-09 21:08 | 27.61783 | 86.69586 | 9915 ft | 93 kts | 7° |
| 2025-12-09 21:08 | 27.63002 | 86.69765 | 9785 ft | 90 kts | 2° |
| 2025-12-09 21:09 | 27.64279 | 86.69912 | 9763 ft | 94 kts | 2° |
| 2025-12-09 21:09 | 27.65593 | 86.69965 | 9709 ft | 93 kts | 1° |
| 2025-12-09 21:10 | 27.66241 | 86.70043 | 9648 ft | 93 kts | 8° |
| 2025-12-09 21:10 | 27.67441 | 86.70680 | 9503 ft | 93 kts | 45° |
| 2025-12-09 21:11 | 27.68643 | 86.72873 | 9257 ft | 59 kts | 61° |
| 2025-12-09 21:11 | 27.68734 | 86.73055 | 9368 ft | 15 kts | 60° |
| 2025-12-09 21:12 | 27.68762 | 86.73173 | 9406 ft | 8 kts | 148° |
| 2025-12-09 21:12 | 27.68731 | 86.73162 | 9406 ft | 1 kts | 32° |
| 2025-12-09 21:13 | 27.68732 | 86.73164 | 9406 ft | 0 kts | 59° |